createdAt,value
2017-05-12T00:00:32.505Z,0
2017-05-12T00:01:33.773Z,0
2017-05-12T00:02:35.152Z,0
2017-05-12T00:03:36.423Z,0
2017-05-12T00:04:37.740Z,0
2017-05-12T00:05:39.043Z,0
2017-05-12T00:06:40.308Z,0
2017-05-12T00:07:41.575Z,0
2017-05-12T00:08:42.845Z,0
2017-05-12T00:09:44.214Z,0
2017-05-12T00:10:45.468Z,0
2017-05-12T00:11:46.725Z,0
2017-05-12T00:12:47.990Z,0
2017-05-12T00:13:49.236Z,0
2017-05-12T00:14:50.549Z,0
2017-05-12T00:15:51.898Z,0
2017-05-12T00:16:53.122Z,0
2017-05-12T00:17:54.413Z,0
2017-05-12T00:18:55.674Z,0
2017-05-12T00:19:56.926Z,0
2017-05-12T00:20:58.203Z,0
2017-05-12T00:21:59.468Z,0
2017-05-12T00:23:00.721Z,0
2017-05-12T00:24:01.965Z,0
2017-05-12T00:25:03.261Z,0
2017-05-12T00:26:04.530Z,0
2017-05-12T00:27:05.800Z,0
2017-05-12T00:28:07.056Z,0
2017-05-12T00:29:08.397Z,0
2017-05-12T00:30:09.655Z,0
2017-05-12T00:31:10.947Z,0
2017-05-12T00:32:12.227Z,0
2017-05-12T00:33:13.549Z,0
2017-05-12T00:34:14.748Z,0
2017-05-12T00:35:16.039Z,0
2017-05-12T00:36:17.281Z,0
2017-05-12T00:37:18.525Z,0
2017-05-12T00:38:19.874Z,0
2017-05-12T00:39:21.139Z,0
2017-05-12T00:40:22.418Z,0
2017-05-12T00:41:23.719Z,0
2017-05-12T00:42:24.974Z,0
2017-05-12T00:43:26.372Z,0
2017-05-12T00:44:27.692Z,0
2017-05-12T00:45:28.947Z,0
2017-05-12T00:46:30.212Z,0
2017-05-12T00:47:31.453Z,0
2017-05-12T00:48:32.680Z,0
2017-05-12T00:49:33.912Z,0
2017-05-12T00:50:35.168Z,0
2017-05-12T00:51:36.421Z,0
2017-05-12T00:52:37.689Z,0
2017-05-12T00:53:38.937Z,0
2017-05-12T00:54:40.182Z,0
2017-05-12T00:55:41.481Z,0
2017-05-12T00:56:42.775Z,0
2017-05-12T00:57:44.014Z,0
2017-05-12T00:58:45.265Z,0
2017-05-12T00:59:46.525Z,0
2017-05-12T01:00:47.800Z,0
2017-05-12T01:01:49.132Z,0
2017-05-12T01:02:50.468Z,0
2017-05-12T01:03:51.783Z,0
2017-05-12T01:04:53.007Z,0
2017-05-12T01:05:54.291Z,0
2017-05-12T01:06:55.554Z,0
2017-05-12T01:07:56.826Z,0
2017-05-12T01:08:58.132Z,0
2017-05-12T01:09:59.428Z,0
2017-05-12T01:11:00.692Z,0
2017-05-12T01:12:01.944Z,0
2017-05-12T01:13:03.199Z,0
2017-05-12T01:14:04.479Z,0
2017-05-12T01:15:05.729Z,0
2017-05-12T01:16:06.973Z,0
2017-05-12T01:17:08.257Z,0
2017-05-12T01:18:09.504Z,0
2017-05-12T01:19:10.791Z,0
2017-05-12T01:20:11.996Z,0
2017-05-12T01:21:13.301Z,0
2017-05-12T01:22:14.663Z,0
2017-05-12T01:23:15.985Z,0
2017-05-12T01:24:17.261Z,0
2017-05-12T01:25:18.558Z,0
2017-05-12T01:26:19.839Z,0
2017-05-12T01:27:21.095Z,0
2017-05-12T01:28:22.359Z,0
2017-05-12T01:29:23.617Z,0
2017-05-12T01:30:24.888Z,0
2017-05-12T01:31:26.182Z,0
2017-05-12T01:32:27.449Z,0
2017-05-12T01:33:28.780Z,0
2017-05-12T01:34:30.068Z,0
2017-05-12T01:35:31.360Z,0
2017-05-12T01:36:32.632Z,0
2017-05-12T01:37:33.911Z,0
2017-05-12T01:38:35.255Z,0
2017-05-12T01:39:36.528Z,0
2017-05-12T01:40:37.855Z,0
2017-05-12T01:41:39.089Z,0
2017-05-12T01:42:40.310Z,0
2017-05-12T01:43:41.574Z,0
2017-05-12T01:44:42.882Z,0
2017-05-12T01:45:44.181Z,0
2017-05-12T01:46:45.429Z,0
2017-05-12T01:47:46.758Z,0
2017-05-12T01:48:48.069Z,0
2017-05-12T01:49:49.331Z,0
2017-05-12T01:50:50.660Z,0
2017-05-12T01:51:52.025Z,0
2017-05-12T01:52:53.292Z,0
2017-05-12T01:53:54.561Z,0
2017-05-12T01:54:55.822Z,0
2017-05-12T01:55:57.092Z,0
2017-05-12T01:56:58.399Z,0
2017-05-12T01:57:59.650Z,0
2017-05-12T01:59:01.013Z,0
2017-05-12T02:00:02.239Z,0
2017-05-12T02:01:03.623Z,0
2017-05-12T02:02:04.992Z,0
2017-05-12T02:03:06.278Z,0
2017-05-12T02:04:07.562Z,0
2017-05-12T02:05:08.845Z,0
2017-05-12T02:06:10.104Z,0
2017-05-12T02:07:11.339Z,0
2017-05-12T02:08:12.600Z,0
2017-05-12T02:09:13.863Z,0
2017-05-12T02:10:15.124Z,0
2017-05-12T02:11:16.445Z,0
2017-05-12T02:12:17.691Z,0
2017-05-12T02:13:18.937Z,0
2017-05-12T02:14:20.244Z,0
2017-05-12T02:15:21.475Z,0
2017-05-12T02:16:22.786Z,0
2017-05-12T02:17:24.063Z,0
2017-05-12T02:18:25.320Z,0
2017-05-12T02:19:26.643Z,0
2017-05-12T02:20:28.029Z,0
2017-05-12T02:21:29.325Z,0
2017-05-12T02:22:30.578Z,0
2017-05-12T02:23:31.851Z,0
2017-05-12T02:24:33.070Z,0
2017-05-12T02:25:34.317Z,0
2017-05-12T02:26:35.595Z,0
2017-05-12T02:27:36.981Z,0
2017-05-12T02:28:38.342Z,0
2017-05-12T02:29:39.611Z,0
2017-05-12T02:30:40.859Z,0
2017-05-12T02:31:42.123Z,0
2017-05-12T02:32:43.409Z,0
2017-05-12T02:33:44.761Z,0
2017-05-12T02:34:45.994Z,0
2017-05-12T02:35:47.233Z,0
2017-05-12T02:36:48.496Z,0
2017-05-12T02:37:49.746Z,0
2017-05-12T02:38:51.032Z,0
2017-05-12T02:39:52.289Z,0
2017-05-12T02:40:53.552Z,0
2017-05-12T02:41:54.837Z,0
2017-05-12T02:42:56.101Z,0
2017-05-12T02:43:57.360Z,0
2017-05-12T02:44:58.646Z,0
2017-05-12T02:45:59.896Z,0
2017-05-12T02:47:01.182Z,0
2017-05-12T02:48:02.462Z,0
2017-05-12T02:49:03.711Z,0
2017-05-12T02:50:04.976Z,0
2017-05-12T02:51:06.246Z,0
2017-05-12T02:52:07.512Z,0
2017-05-12T02:53:08.909Z,0
2017-05-12T02:54:10.178Z,0
2017-05-12T02:55:11.483Z,0
2017-05-12T02:56:12.752Z,0
2017-05-12T02:57:13.997Z,0
2017-05-12T02:58:15.312Z,0
2017-05-12T02:59:16.599Z,0
2017-05-12T03:00:17.802Z,0
2017-05-12T03:01:19.093Z,0
2017-05-12T03:02:20.489Z,0
2017-05-12T03:03:21.734Z,0
2017-05-12T03:04:23.130Z,0
2017-05-12T03:05:24.504Z,0
2017-05-12T03:06:25.746Z,0
2017-05-12T03:07:27.093Z,0
2017-05-12T03:08:28.564Z,0
2017-05-12T03:09:29.797Z,0
2017-05-12T03:10:31.053Z,0
2017-05-12T03:11:32.313Z,0
2017-05-12T03:12:33.575Z,0
2017-05-12T03:13:34.861Z,0
2017-05-12T03:14:36.093Z,0
2017-05-12T03:15:37.364Z,0
2017-05-12T03:16:38.609Z,0
2017-05-12T03:17:39.866Z,0
2017-05-12T03:18:41.173Z,0
2017-05-12T03:19:42.447Z,0
2017-05-12T03:20:43.691Z,0
2017-05-12T03:21:44.966Z,0
2017-05-12T03:22:46.285Z,0
2017-05-12T03:23:47.533Z,0
2017-05-12T03:24:48.923Z,0
2017-05-12T03:25:50.177Z,0
2017-05-12T03:26:51.399Z,0
2017-05-12T03:27:52.632Z,0
2017-05-12T03:28:53.921Z,0
2017-05-12T03:29:55.146Z,0
2017-05-12T03:30:56.390Z,0
2017-05-12T03:31:57.665Z,0
2017-05-12T03:32:58.927Z,0
2017-05-12T03:34:00.176Z,0
2017-05-12T03:35:01.439Z,0
2017-05-12T03:36:02.683Z,0
2017-05-12T03:37:03.959Z,0
2017-05-12T03:38:05.224Z,0
2017-05-12T03:39:06.504Z,0
2017-05-12T03:40:07.749Z,0
2017-05-12T03:41:08.998Z,5
2017-05-12T03:42:10.334Z,5
2017-05-12T03:43:11.537Z,5
2017-05-12T03:44:12.832Z,5
2017-05-12T03:45:14.054Z,5
2017-05-12T03:46:15.323Z,5
2017-05-12T03:47:16.591Z,5
2017-05-12T03:48:17.865Z,5
2017-05-12T03:49:19.111Z,5
2017-05-12T03:50:20.390Z,5
2017-05-12T03:51:21.675Z,5
2017-05-12T03:52:23.026Z,5
2017-05-12T03:53:24.249Z,10
2017-05-12T03:54:25.486Z,10
2017-05-12T03:55:26.728Z,10
2017-05-12T03:56:28.062Z,10
2017-05-12T03:57:29.392Z,10
2017-05-12T03:58:30.655Z,10
2017-05-12T03:59:31.912Z,10
2017-05-12T04:00:33.177Z,10
2017-05-12T04:01:34.438Z,10
2017-05-12T04:02:35.697Z,10
2017-05-12T04:03:37.040Z,10
2017-05-12T04:04:38.388Z,10
2017-05-12T04:05:39.630Z,10
2017-05-12T04:06:40.911Z,10
2017-05-12T04:07:42.163Z,10
2017-05-12T04:08:43.431Z,10
2017-05-12T04:09:44.697Z,10
2017-05-12T04:10:45.949Z,10
2017-05-12T04:11:47.209Z,10
2017-05-12T04:12:48.453Z,10
2017-05-12T04:13:49.682Z,10
2017-05-12T04:14:50.939Z,10
2017-05-12T04:15:52.248Z,10
2017-05-12T04:16:53.589Z,10
2017-05-12T04:17:54.822Z,10
2017-05-12T04:18:56.231Z,10
2017-05-12T04:19:57.477Z,10
2017-05-12T04:20:58.773Z,10
2017-05-12T04:22:00.042Z,10
2017-05-12T04:23:01.320Z,15
2017-05-12T04:24:02.622Z,15
2017-05-12T04:25:03.908Z,15
2017-05-12T04:26:05.289Z,15
2017-05-12T04:27:06.554Z,15
2017-05-12T04:28:07.789Z,15
2017-05-12T04:29:09.074Z,15
2017-05-12T04:30:10.502Z,15
2017-05-12T04:31:11.915Z,15
2017-05-12T04:32:13.140Z,15
2017-05-12T04:33:14.377Z,15
2017-05-12T04:34:15.609Z,15
2017-05-12T04:35:16.864Z,15
2017-05-12T04:36:18.139Z,20
2017-05-12T04:37:19.408Z,20
2017-05-12T04:38:20.668Z,20
2017-05-12T04:39:21.929Z,20
2017-05-12T04:40:23.169Z,20
2017-05-12T04:41:24.443Z,20
2017-05-12T04:42:25.729Z,25
2017-05-12T04:43:26.957Z,25
2017-05-12T04:44:28.305Z,25
2017-05-12T04:45:29.550Z,30
2017-05-12T04:46:30.861Z,30
2017-05-12T04:47:32.121Z,35
2017-05-12T04:48:33.411Z,35
2017-05-12T04:49:34.704Z,35
2017-05-12T04:50:35.999Z,40
2017-05-12T04:51:37.272Z,40
2017-05-12T04:52:38.527Z,45
2017-05-12T04:53:39.809Z,45
2017-05-12T04:54:41.085Z,45
2017-05-12T04:55:42.376Z,50
2017-05-12T04:56:43.631Z,50
2017-05-12T04:57:44.919Z,50
2017-05-12T04:58:46.209Z,55
2017-05-12T04:59:47.452Z,55
2017-05-12T05:00:48.750Z,55
2017-05-12T05:01:50.074Z,60
2017-05-12T05:02:51.305Z,60
2017-05-12T05:03:52.546Z,65
2017-05-12T05:04:53.799Z,65
2017-05-12T05:05:55.074Z,65
2017-05-12T05:06:56.344Z,65
2017-05-12T05:07:57.609Z,65
2017-05-12T05:08:58.923Z,65
2017-05-12T05:10:00.176Z,70
2017-05-12T05:11:01.429Z,70
2017-05-12T05:12:02.669Z,75
2017-05-12T05:13:03.952Z,80
2017-05-12T05:14:05.258Z,85
2017-05-12T05:15:06.547Z,95
2017-05-12T05:16:07.813Z,100
2017-05-12T05:17:09.050Z,105
2017-05-12T05:18:10.320Z,105
2017-05-12T05:19:11.542Z,105
2017-05-12T05:20:12.823Z,100
2017-05-12T05:21:14.089Z,100
2017-05-12T05:22:15.372Z,90
2017-05-12T05:23:16.615Z,85
2017-05-12T05:24:17.907Z,75
2017-05-12T05:25:19.169Z,70
2017-05-12T05:26:20.419Z,70
2017-05-12T05:27:21.752Z,70
2017-05-12T05:28:23.016Z,70
2017-05-12T05:29:24.289Z,70
2017-05-12T05:30:25.537Z,75
2017-05-12T05:31:26.780Z,80
2017-05-12T05:32:28.057Z,85
2017-05-12T05:33:29.330Z,90
2017-05-12T05:34:30.618Z,95
2017-05-12T05:35:31.840Z,100
2017-05-12T05:36:33.115Z,105
2017-05-12T05:37:34.378Z,105
2017-05-12T05:38:35.657Z,105
2017-05-12T05:39:36.944Z,110
2017-05-12T05:40:38.214Z,115
2017-05-12T05:41:39.495Z,120
2017-05-12T05:42:40.752Z,125
2017-05-12T05:43:42.026Z,130
2017-05-12T05:44:43.343Z,135
2017-05-12T05:45:44.616Z,140
2017-05-12T05:46:45.912Z,145
2017-05-12T05:47:47.184Z,150
2017-05-12T05:48:48.486Z,140
2017-05-12T05:49:49.731Z,140
2017-05-12T05:50:51.082Z,140
2017-05-12T05:51:52.297Z,135
2017-05-12T05:52:53.608Z,135
2017-05-12T05:53:54.868Z,130
2017-05-12T05:54:56.151Z,130
2017-05-12T05:55:57.400Z,125
2017-05-12T05:56:58.651Z,120
2017-05-12T05:57:59.920Z,120
2017-05-12T05:59:01.300Z,120
2017-05-12T06:00:02.622Z,120
2017-05-12T06:01:03.945Z,120
2017-05-12T06:02:05.180Z,120
2017-05-12T06:03:06.454Z,125
2017-05-12T06:04:07.724Z,130
2017-05-12T06:05:09.156Z,135
2017-05-12T06:06:10.422Z,135
2017-05-12T06:07:11.679Z,135
2017-05-12T06:08:12.912Z,130
2017-05-12T06:09:14.230Z,130
2017-05-12T06:10:15.549Z,130
2017-05-12T06:11:16.840Z,130
2017-05-12T06:12:18.088Z,140
2017-05-12T06:13:19.365Z,150
2017-05-12T06:14:20.634Z,160
2017-05-12T06:15:21.884Z,170
2017-05-12T06:16:23.171Z,175
2017-05-12T06:17:24.474Z,170
2017-05-12T06:18:25.715Z,165
2017-05-12T06:19:27.007Z,160
2017-05-12T06:20:28.313Z,155
2017-05-12T06:21:29.554Z,150
2017-05-12T06:22:30.850Z,145
2017-05-12T06:23:32.095Z,145
2017-05-12T06:24:33.380Z,150
2017-05-12T06:25:34.624Z,145
2017-05-12T06:26:35.885Z,145
2017-05-12T06:27:37.186Z,140
2017-05-12T06:28:38.452Z,130
2017-05-12T06:29:39.698Z,130
2017-05-12T06:30:40.941Z,120
2017-05-12T06:31:42.223Z,115
2017-05-12T06:32:43.500Z,115
2017-05-12T06:33:44.755Z,120
2017-05-12T06:34:46.009Z,125
2017-05-12T06:35:47.320Z,135
2017-05-12T06:36:48.644Z,135
2017-05-12T06:37:49.887Z,140
2017-05-12T06:38:51.118Z,140
2017-05-12T06:39:52.376Z,135
2017-05-12T06:40:53.650Z,135
2017-05-12T06:41:54.997Z,140
2017-05-12T06:42:56.280Z,150
2017-05-12T06:43:57.531Z,160
2017-05-12T06:44:58.818Z,165
2017-05-12T06:46:00.091Z,170
2017-05-12T06:47:01.321Z,170
2017-05-12T06:48:02.595Z,165
2017-05-12T06:49:03.802Z,165
2017-05-12T06:50:05.058Z,170
2017-05-12T06:51:06.383Z,180
2017-05-12T06:52:07.683Z,195
2017-05-12T06:53:08.930Z,205
2017-05-12T06:54:10.170Z,220
2017-05-12T06:55:11.452Z,220
2017-05-12T06:56:12.689Z,215
2017-05-12T06:57:13.974Z,215
2017-05-12T06:58:15.321Z,210
2017-05-12T06:59:16.541Z,210
2017-05-12T07:00:17.782Z,215
2017-05-12T07:01:19.044Z,225
2017-05-12T07:02:20.325Z,240
2017-05-12T07:03:21.635Z,245
2017-05-12T07:04:22.930Z,245
2017-05-12T07:05:24.172Z,250
2017-05-12T07:06:25.512Z,255
2017-05-12T07:07:26.797Z,265
2017-05-12T07:08:28.048Z,265
2017-05-12T07:09:29.333Z,260
2017-05-12T07:10:30.570Z,255
2017-05-12T07:11:31.841Z,250
2017-05-12T07:12:33.138Z,250
2017-05-12T07:13:34.357Z,255
2017-05-12T07:14:35.622Z,260
2017-05-12T07:15:36.880Z,270
2017-05-12T07:16:38.352Z,280
2017-05-12T07:17:39.608Z,290
2017-05-12T07:18:40.991Z,290
2017-05-12T07:19:42.281Z,290
2017-05-12T07:20:43.564Z,290
2017-05-12T07:21:44.953Z,285
2017-05-12T07:22:46.248Z,280
2017-05-12T07:23:47.507Z,275
2017-05-12T07:24:48.750Z,270
2017-05-12T07:25:50.033Z,270
2017-05-12T07:26:51.282Z,270
2017-05-12T07:27:52.573Z,265
2017-05-12T07:28:53.839Z,265
2017-05-12T07:29:55.069Z,260
2017-05-12T07:30:56.370Z,255
2017-05-12T07:31:57.573Z,255
2017-05-12T07:32:58.914Z,260
2017-05-12T07:34:00.200Z,260
2017-05-12T07:35:01.430Z,255
2017-05-12T07:36:02.707Z,240
2017-05-12T07:37:03.966Z,230
2017-05-12T07:38:05.246Z,225
2017-05-12T07:39:06.514Z,220
2017-05-12T07:40:07.879Z,215
2017-05-12T07:41:09.113Z,205
2017-05-12T07:42:10.493Z,195
2017-05-12T07:43:11.754Z,195
2017-05-12T07:44:13.059Z,190
2017-05-12T07:45:14.337Z,195
2017-05-12T07:46:15.702Z,205
2017-05-12T07:47:16.998Z,210
2017-05-12T07:48:18.268Z,210
2017-05-12T07:49:19.502Z,205
2017-05-12T07:50:20.741Z,210
2017-05-12T07:51:22.127Z,215
2017-05-12T07:52:23.490Z,215
2017-05-12T07:53:24.763Z,220
2017-05-12T07:54:26.011Z,225
2017-05-12T07:55:27.288Z,225
2017-05-12T07:56:28.579Z,235
2017-05-12T07:57:29.844Z,240
2017-05-12T07:58:31.102Z,245
2017-05-12T07:59:32.366Z,250
2017-05-12T08:00:33.663Z,265
2017-05-12T08:01:34.990Z,270
2017-05-12T08:02:36.234Z,275
2017-05-12T08:03:37.553Z,295
2017-05-12T08:04:38.818Z,300
2017-05-12T08:05:40.080Z,315
2017-05-12T08:06:41.322Z,330
2017-05-12T08:07:42.645Z,355
2017-05-12T08:08:44.038Z,385
2017-05-12T08:09:45.227Z,410
2017-05-12T08:10:46.498Z,445
2017-05-12T08:11:47.741Z,475
2017-05-12T08:12:48.976Z,495
2017-05-12T08:13:50.241Z,505
2017-05-12T08:14:51.509Z,500
2017-05-12T08:15:52.863Z,485
2017-05-12T08:16:54.148Z,475
2017-05-12T08:17:55.397Z,460
2017-05-12T08:18:56.679Z,450
2017-05-12T08:19:57.954Z,445
2017-05-12T08:20:59.194Z,440
2017-05-12T08:22:00.475Z,430
2017-05-12T08:23:01.745Z,430
2017-05-12T08:24:03.003Z,435
2017-05-12T08:25:04.244Z,440
2017-05-12T08:26:05.497Z,455
2017-05-12T08:27:06.793Z,470
2017-05-12T08:28:08.118Z,490
2017-05-12T08:29:09.487Z,510
2017-05-12T08:30:10.759Z,540
2017-05-12T08:31:12.026Z,570
2017-05-12T08:32:13.291Z,610
2017-05-12T08:33:14.575Z,655
2017-05-12T08:34:15.870Z,695
2017-05-12T08:35:17.098Z,765
2017-05-12T08:36:18.393Z,785
2017-05-12T08:37:19.667Z,785
2017-05-12T08:38:20.961Z,785
2017-05-12T08:39:22.253Z,790
2017-05-12T08:40:23.548Z,780
2017-05-12T08:41:24.905Z,755
2017-05-12T08:42:26.124Z,720
2017-05-12T08:43:27.385Z,670
2017-05-12T08:44:28.680Z,625
2017-05-12T08:45:29.951Z,570
2017-05-12T08:46:31.314Z,505
2017-05-12T08:47:32.579Z,485
2017-05-12T08:48:33.817Z,475
2017-05-12T08:49:35.073Z,480
2017-05-12T08:50:36.314Z,475
2017-05-12T08:51:37.583Z,485
2017-05-12T08:52:38.841Z,510
2017-05-12T08:53:40.098Z,525
2017-05-12T08:54:41.375Z,545
2017-05-12T08:55:42.677Z,550
2017-05-12T08:56:44.078Z,530
2017-05-12T08:57:45.361Z,470
2017-05-12T08:58:46.635Z,445
2017-05-12T08:59:47.900Z,390
2017-05-12T09:00:49.144Z,370
2017-05-12T09:01:50.532Z,385
2017-05-12T09:02:51.853Z,380
2017-05-12T09:03:53.094Z,390
2017-05-12T09:04:54.376Z,395
2017-05-12T09:05:55.637Z,365
2017-05-12T09:06:56.888Z,325
2017-05-12T09:07:58.168Z,290
2017-05-12T09:08:59.496Z,280
2017-05-12T09:10:00.736Z,280
2017-05-12T09:11:02.027Z,275
2017-05-12T09:12:03.333Z,265
2017-05-12T09:13:04.674Z,255
2017-05-12T09:14:05.965Z,250
2017-05-12T09:15:07.283Z,250
2017-05-12T09:16:08.531Z,255
2017-05-12T09:17:09.813Z,280
2017-05-12T09:18:11.019Z,300
2017-05-12T09:19:12.424Z,325
2017-05-12T09:20:13.584Z,380
2017-05-12T09:21:14.844Z,450
2017-05-12T09:22:16.139Z,535
2017-05-12T09:23:17.417Z,620
2017-05-12T09:24:18.697Z,720
2017-05-12T09:25:19.971Z,780
2017-05-12T09:26:21.224Z,805
2017-05-12T09:27:22.457Z,710
2017-05-12T09:28:23.753Z,675
2017-05-12T09:29:25.012Z,935
2017-05-12T09:30:26.278Z,850
2017-05-12T09:31:27.557Z,735
2017-05-12T09:32:28.792Z,670
2017-05-12T09:33:30.027Z,680
2017-05-12T09:34:31.328Z,665
2017-05-12T09:35:32.715Z,640
2017-05-12T09:36:33.992Z,630
2017-05-12T09:37:35.245Z,650
2017-05-12T09:38:36.523Z,700
2017-05-12T09:39:37.768Z,835
2017-05-12T09:40:39.076Z,955
2017-05-12T09:41:40.348Z,1035
2017-05-12T09:42:41.663Z,970
2017-05-12T09:43:42.944Z,1050
2017-05-12T09:44:44.241Z,1080
2017-05-12T09:45:45.559Z,850
2017-05-12T09:46:46.838Z,700
2017-05-12T09:47:48.120Z,700
2017-05-12T09:48:49.373Z,910
2017-05-12T09:49:50.645Z,920
2017-05-12T09:50:52.097Z,900
2017-05-12T09:51:53.366Z,855
2017-05-12T09:52:54.714Z,815
2017-05-12T09:53:55.969Z,755
2017-05-12T09:54:57.226Z,690
2017-05-12T09:55:58.508Z,640
2017-05-12T09:56:59.820Z,625
2017-05-12T09:58:01.040Z,620
2017-05-12T09:59:02.331Z,605
2017-05-12T10:00:03.607Z,560
2017-05-12T10:01:04.964Z,550
2017-05-12T10:02:06.233Z,525
2017-05-12T10:03:07.491Z,505
2017-05-12T10:04:08.814Z,470
2017-05-12T10:05:10.078Z,425
2017-05-12T10:06:11.333Z,440
2017-05-12T10:07:12.601Z,450
2017-05-12T10:08:13.856Z,470
2017-05-12T10:09:15.153Z,475
2017-05-12T10:10:16.401Z,475
2017-05-12T10:11:17.690Z,415
2017-05-12T10:12:18.961Z,350
2017-05-12T10:13:20.317Z,275
2017-05-12T10:14:21.563Z,265
2017-05-12T10:15:22.847Z,300
2017-05-12T10:16:24.100Z,345
2017-05-12T10:17:25.351Z,400
2017-05-12T10:18:26.625Z,430
2017-05-12T10:19:27.878Z,445
2017-05-12T10:20:29.234Z,445
2017-05-12T10:21:30.541Z,415
2017-05-12T10:22:31.786Z,435
2017-05-12T10:23:33.076Z,510
2017-05-12T10:24:34.400Z,590
2017-05-12T10:25:35.676Z,615
2017-05-12T10:26:37.010Z,635
2017-05-12T10:27:38.270Z,650
2017-05-12T10:28:39.525Z,585
2017-05-12T10:29:40.794Z,545
2017-05-12T10:30:42.073Z,600
2017-05-12T10:31:43.283Z,660
2017-05-12T10:32:44.607Z,735
2017-05-12T10:33:45.824Z,785
2017-05-12T10:34:47.081Z,795
2017-05-12T10:35:48.409Z,795
2017-05-12T10:36:49.646Z,790
2017-05-12T10:37:50.887Z,775
2017-05-12T10:38:52.271Z,760
2017-05-12T10:39:53.538Z,755
2017-05-12T10:40:54.785Z,730
2017-05-12T10:41:56.040Z,710
2017-05-12T10:42:57.334Z,715
2017-05-12T10:43:58.588Z,755
2017-05-12T10:44:59.870Z,805
2017-05-12T10:46:01.121Z,855
2017-05-12T10:47:02.420Z,875
2017-05-12T10:48:03.704Z,850
2017-05-12T10:49:05.065Z,775
2017-05-12T10:50:06.370Z,730
2017-05-12T10:51:07.745Z,825
2017-05-12T10:52:09.025Z,925
2017-05-12T10:53:10.264Z,895
2017-05-12T10:54:11.599Z,825
2017-05-12T10:55:12.960Z,720
2017-05-12T10:56:14.270Z,610
2017-05-12T10:57:15.622Z,585
2017-05-12T10:58:16.935Z,630
2017-05-12T10:59:18.190Z,685
2017-05-12T11:00:19.445Z,685
2017-05-12T11:01:20.703Z,660
2017-05-12T11:02:21.968Z,665
2017-05-12T11:03:23.216Z,795
2017-05-12T11:04:24.470Z,910
2017-05-12T11:05:25.732Z,975
2017-05-12T11:06:27.054Z,985
2017-05-12T11:07:28.365Z,975
2017-05-12T11:08:29.620Z,1005
2017-05-12T11:09:30.893Z,1080
2017-05-12T11:10:32.153Z,1105
2017-05-12T11:11:33.449Z,1065
2017-05-12T11:12:34.821Z,965
2017-05-12T11:13:36.120Z,865
2017-05-12T11:14:37.400Z,800
2017-05-12T11:15:38.891Z,725
2017-05-12T11:16:40.145Z,660
2017-05-12T11:17:41.506Z,620
2017-05-12T11:18:42.883Z,600
2017-05-12T11:19:44.131Z,595
2017-05-12T11:20:45.371Z,610
2017-05-12T11:21:46.731Z,625
2017-05-12T11:22:47.976Z,645
2017-05-12T11:23:49.242Z,660
2017-05-12T11:24:50.519Z,675
2017-05-12T11:25:51.792Z,695
2017-05-12T11:26:53.065Z,725
2017-05-12T11:27:54.318Z,750
2017-05-12T11:28:55.632Z,770
2017-05-12T11:29:56.991Z,820
2017-05-12T11:30:58.251Z,885
2017-05-12T11:31:59.560Z,935
2017-05-12T11:33:00.817Z,975
2017-05-12T11:34:02.090Z,1015
2017-05-12T11:35:03.333Z,1050
2017-05-12T11:36:04.673Z,1025
2017-05-12T11:37:05.941Z,935
2017-05-12T11:38:07.198Z,860
2017-05-12T11:39:08.485Z,830
2017-05-12T11:40:09.718Z,890
2017-05-12T11:41:10.973Z,880
2017-05-12T11:42:12.329Z,810
2017-05-12T11:43:13.627Z,720
2017-05-12T11:44:14.890Z,670
2017-05-12T11:45:16.149Z,700
2017-05-12T11:46:17.404Z,735
2017-05-12T11:47:18.758Z,715
2017-05-12T11:48:20.060Z,720
2017-05-12T11:49:21.322Z,740
2017-05-12T11:50:22.599Z,725
2017-05-12T11:51:23.852Z,705
2017-05-12T11:52:25.109Z,685
2017-05-12T11:53:26.367Z,665
2017-05-12T11:54:27.737Z,600
2017-05-12T11:55:29.001Z,550
2017-05-12T11:56:30.257Z,540
2017-05-12T11:57:31.518Z,515
2017-05-12T11:58:32.910Z,510
2017-05-12T11:59:34.164Z,515
2017-05-12T12:00:35.417Z,515
2017-05-12T12:01:36.804Z,525
2017-05-12T12:02:38.061Z,540
2017-05-12T12:03:39.336Z,510
2017-05-12T12:04:40.579Z,495
2017-05-12T12:05:41.844Z,540
2017-05-12T12:06:43.127Z,565
2017-05-12T12:07:44.406Z,550
2017-05-12T12:08:45.687Z,525
2017-05-12T12:09:47.082Z,545
2017-05-12T12:10:48.449Z,650
2017-05-12T12:11:49.684Z,660
2017-05-12T12:12:50.946Z,640
2017-05-12T12:13:52.225Z,625
2017-05-12T12:14:53.495Z,640
2017-05-12T12:15:54.814Z,630
2017-05-12T12:16:56.068Z,675
2017-05-12T12:17:57.338Z,690
2017-05-12T12:18:58.645Z,660
2017-05-12T12:19:59.872Z,595
2017-05-12T12:21:01.123Z,540
2017-05-12T12:22:02.400Z,495
2017-05-12T12:23:03.655Z,420
2017-05-12T12:24:04.937Z,390
2017-05-12T12:25:06.178Z,380
2017-05-12T12:26:07.441Z,380
2017-05-12T12:27:08.781Z,385
2017-05-12T12:28:10.066Z,390
2017-05-12T12:29:11.472Z,415
2017-05-12T12:30:12.699Z,430
2017-05-12T12:31:13.957Z,430
2017-05-12T12:32:15.221Z,415
2017-05-12T12:33:16.521Z,415
2017-05-12T12:34:17.780Z,435
2017-05-12T12:35:19.051Z,475
2017-05-12T12:36:20.363Z,505
2017-05-12T12:37:21.628Z,500
2017-05-12T12:38:22.920Z,490
2017-05-12T12:39:24.176Z,485
2017-05-12T12:40:25.455Z,485
2017-05-12T12:41:26.725Z,475
2017-05-12T12:42:27.996Z,460
2017-05-12T12:43:29.261Z,425
2017-05-12T12:44:30.521Z,390
2017-05-12T12:45:31.788Z,360
2017-05-12T12:46:33.131Z,320
2017-05-12T12:47:34.419Z,285
2017-05-12T12:48:35.699Z,260
2017-05-12T12:49:36.974Z,245
2017-05-12T12:50:38.237Z,220
2017-05-12T12:51:39.505Z,200
2017-05-12T12:52:40.785Z,190
2017-05-12T12:53:42.064Z,170
2017-05-12T12:54:43.451Z,155
2017-05-12T12:55:44.766Z,145
2017-05-12T12:56:46.005Z,155
2017-05-12T12:57:47.286Z,165
2017-05-12T12:58:48.539Z,180
2017-05-12T12:59:49.804Z,200
2017-05-12T13:00:51.072Z,205
2017-05-12T13:01:52.334Z,220
2017-05-12T13:02:53.595Z,230
2017-05-12T13:03:54.976Z,230
2017-05-12T13:04:56.185Z,220
2017-05-12T13:05:57.486Z,180
2017-05-12T13:06:58.773Z,125
2017-05-12T13:08:00.030Z,75
2017-05-12T13:09:01.289Z,55
2017-05-12T13:10:02.578Z,45
2017-05-12T13:11:03.831Z,45
2017-05-12T13:12:05.089Z,65
2017-05-12T13:13:06.336Z,95
2017-05-12T13:14:07.643Z,105
2017-05-12T13:15:08.933Z,100
2017-05-12T13:16:10.167Z,100
2017-05-12T13:17:11.431Z,100
2017-05-12T13:18:12.689Z,95
2017-05-12T13:19:13.935Z,100
2017-05-12T13:20:15.263Z,105
2017-05-12T13:21:16.622Z,110
2017-05-12T13:22:17.882Z,110
2017-05-12T13:23:19.158Z,110
2017-05-12T13:24:20.421Z,105
2017-05-12T13:25:21.701Z,105
2017-05-12T13:26:23.065Z,105
2017-05-12T13:27:24.329Z,110
2017-05-12T13:28:25.657Z,110
2017-05-12T13:29:26.980Z,115
2017-05-12T13:30:28.222Z,115
2017-05-12T13:31:29.489Z,115
2017-05-12T13:32:30.753Z,115
2017-05-12T13:33:32.023Z,115
2017-05-12T13:34:33.317Z,115
2017-05-12T13:35:34.588Z,120
2017-05-12T13:36:35.863Z,135
2017-05-12T13:37:37.167Z,140
2017-05-12T13:38:38.437Z,155
2017-05-12T13:39:39.694Z,170
2017-05-12T13:40:40.948Z,185
2017-05-12T13:41:42.188Z,210
2017-05-12T13:42:43.539Z,235
2017-05-12T13:43:44.806Z,260
2017-05-12T13:44:46.040Z,280
2017-05-12T13:45:47.353Z,270
2017-05-12T13:46:48.645Z,255
2017-05-12T13:47:49.886Z,250
2017-05-12T13:48:51.237Z,255
2017-05-12T13:49:52.482Z,275
2017-05-12T13:50:53.755Z,310
2017-05-12T13:51:55.002Z,345
2017-05-12T13:52:56.279Z,370
2017-05-12T13:53:57.548Z,415
2017-05-12T13:54:58.809Z,445
2017-05-12T13:56:00.089Z,465
2017-05-12T13:57:01.319Z,475
2017-05-12T13:58:02.566Z,495
2017-05-12T13:59:03.835Z,505
2017-05-12T14:00:05.128Z,515
2017-05-12T14:01:06.374Z,510
2017-05-12T14:02:07.634Z,510
2017-05-12T14:03:08.966Z,510
2017-05-12T14:04:10.219Z,510
2017-05-12T14:05:11.539Z,515
2017-05-12T14:06:12.903Z,510
2017-05-12T14:07:14.140Z,505
2017-05-12T14:08:15.398Z,505
2017-05-12T14:09:16.676Z,505
2017-05-12T14:10:17.946Z,505
2017-05-12T14:11:19.331Z,505
2017-05-12T14:12:20.713Z,505
2017-05-12T14:13:21.998Z,505
2017-05-12T14:14:23.249Z,510
2017-05-12T14:15:24.522Z,515
2017-05-12T14:16:25.775Z,515
2017-05-12T14:17:27.014Z,520
2017-05-12T14:18:28.285Z,530
2017-05-12T14:19:29.562Z,530
2017-05-12T14:20:30.934Z,535
2017-05-12T14:21:32.165Z,550
2017-05-12T14:22:33.416Z,555